createdAt,value
2023-03-16T00:00:49.222Z,101054.25
2023-03-16T00:06:00.337Z,101043.59
2023-03-16T00:11:07.815Z,101036.06
2023-03-16T00:16:17.492Z,101031.72
2023-03-16T00:21:25.209Z,101034.69
2023-03-16T00:26:32.087Z,101040.69
2023-03-16T00:31:38.512Z,101045.41
2023-03-16T00:36:46.409Z,101055.97
2023-03-16T00:41:52.555Z,101052.63
2023-03-16T00:46:59.059Z,101056.28
2023-03-16T00:52:08.867Z,101055.28
2023-03-16T00:57:19.108Z,101051.28
2023-03-16T01:02:28.148Z,101047.28
2023-03-16T01:07:36.664Z,101046.84
2023-03-16T01:12:45.585Z,101047.00
2023-03-16T01:17:52.580Z,101053.66
2023-03-16T01:23:00.946Z,101054.53
2023-03-16T01:28:07.549Z,101054.31
2023-03-16T01:33:14.073Z,101058.09
2023-03-16T01:38:22.477Z,101060.50
2023-03-16T01:43:33.621Z,101054.72
2023-03-16T01:48:46.353Z,101055.59
2023-03-16T01:53:59.176Z,101068.34
2023-03-16T01:59:13.654Z,101059.09
2023-03-16T02:04:48.512Z,101066.75
2023-03-16T02:10:03.893Z,101072.88
2023-03-16T02:15:12.340Z,101092.50
2023-03-16T02:20:34.991Z,101088.19
2023-03-16T02:25:51.987Z,101094.88
2023-03-16T02:31:00.422Z,101104.47
2023-03-16T02:36:07.809Z,101102.31
2023-03-16T02:41:17.689Z,101115.16
2023-03-16T02:46:36.130Z,101118.63
2023-03-16T02:51:43.582Z,101131.66
2023-03-16T02:56:50.982Z,101130.63
2023-03-16T03:01:59.612Z,101136.88
2023-03-16T03:07:06.544Z,101141.63
2023-03-16T03:12:26.644Z,101128.78
2023-03-16T03:17:37.805Z,101131.03
2023-03-16T03:22:46.385Z,101142.84
2023-03-16T03:27:55.541Z,101143.88
2023-03-16T03:33:05.601Z,101145.00
2023-03-16T03:38:11.975Z,101159.84
2023-03-16T03:43:19.669Z,101158.09
2023-03-16T03:48:30.485Z,101154.81
2023-03-16T03:53:37.659Z,101165.47
2023-03-16T03:59:16.222Z,101171.78
2023-03-16T04:04:39.519Z,101178.88
2023-03-16T04:10:07.858Z,101177.03
2023-03-16T04:15:19.326Z,101182.75
2023-03-16T04:20:38.593Z,101187.88
2023-03-16T04:25:46.242Z,101193.94
2023-03-16T04:30:56.511Z,101199.00
2023-03-16T04:36:14.081Z,101199.19
2023-03-16T04:41:21.158Z,101199.28
2023-03-16T04:46:42.757Z,101198.22
2023-03-16T04:51:52.247Z,101193.19
2023-03-16T04:57:00.807Z,101198.19
2023-03-16T05:02:26.503Z,101196.13
2023-03-16T05:07:42.371Z,101203.91
2023-03-16T05:12:49.691Z,101214.06
2023-03-16T05:17:57.663Z,101217.38
2023-03-16T05:23:09.001Z,101218.28
2023-03-16T05:28:22.685Z,101225.22
2023-03-16T05:33:38.980Z,101230.50
2023-03-16T05:38:53.909Z,101224.75
2023-03-16T05:44:12.173Z,101231.88
2023-03-16T05:49:44.322Z,101226.38
2023-03-16T05:55:02.265Z,101240.84
2023-03-16T06:00:14.984Z,101241.28
2023-03-16T06:05:28.797Z,101243.44
2023-03-16T06:10:37.205Z,101247.25
2023-03-16T06:15:44.518Z,101246.75
2023-03-16T06:20:53.063Z,101243.78
2023-03-16T06:26:02.906Z,101261.94
2023-03-16T06:31:11.675Z,101259.59
2023-03-16T06:36:23.162Z,101264.03
2023-03-16T06:41:36.110Z,101259.13
2023-03-16T06:46:42.442Z,101269.59
2023-03-16T06:51:49.033Z,101274.09
2023-03-16T06:56:57.455Z,101287.97
2023-03-16T07:17:23.268Z,101291.28
2023-03-16T07:22:32.937Z,101293.06
2023-03-16T07:27:41.776Z,101299.19
2023-03-16T07:32:51.489Z,101300.25
2023-03-16T07:38:00.651Z,101302.16
2023-03-16T07:43:07.517Z,101299.88
2023-03-16T07:48:20.715Z,101301.03
2023-03-16T07:53:40.332Z,101302.06
2023-03-16T07:58:58.738Z,101311.88
2023-03-16T08:04:08.883Z,101312.94
2023-03-16T08:09:15.713Z,101308.25
2023-03-16T08:14:24.097Z,101302.47
2023-03-16T08:19:46.442Z,101301.72
2023-03-16T08:24:52.983Z,101307.19
2023-03-16T08:30:05.969Z,101313.25
2023-03-16T08:35:18.237Z,101308.31
2023-03-16T08:40:29.676Z,101311.97
2023-03-16T08:45:39.312Z,101316.53
2023-03-16T08:50:48.056Z,101315.94
2023-03-16T08:55:54.953Z,101311.88
2023-03-16T09:01:02.186Z,101309.63
2023-03-16T09:06:13.652Z,101321.88
2023-03-16T09:11:23.696Z,101325.31
2023-03-16T09:16:31.383Z,101321.16
2023-03-16T09:21:40.033Z,101320.22
2023-03-16T09:26:46.302Z,101321.94
2023-03-16T09:31:53.519Z,101326.41
2023-03-16T09:37:03.057Z,101316.63
2023-03-16T09:42:19.636Z,101321.13
2023-03-16T09:47:31.615Z,101323.19
2023-03-16T09:52:48.972Z,101323.66
2023-03-16T09:57:56.532Z,101324.03
2023-03-16T10:03:19.703Z,101323.38
2023-03-16T10:08:33.271Z,101326.16
2023-03-16T10:13:49.491Z,101336.63
2023-03-16T10:19:03.970Z,101331.63
2023-03-16T10:24:25.922Z,101342.03
2023-03-16T10:29:37.330Z,101336.16
2023-03-16T10:34:47.127Z,101335.38
2023-03-16T10:39:56.701Z,101336.53
2023-03-16T10:45:03.772Z,101340.03
2023-03-16T10:50:21.279Z,101348.41
2023-03-16T10:55:32.874Z,101344.88
2023-03-16T11:00:45.986Z,101349.97
2023-03-16T11:06:02.760Z,101361.06
2023-03-16T11:11:17.967Z,101352.59
2023-03-16T11:16:30.912Z,101349.53
2023-03-16T11:21:49.912Z,101336.97
2023-03-16T11:27:01.473Z,101345.59
2023-03-16T11:32:15.241Z,101348.22
2023-03-16T11:37:41.091Z,101342.09
2023-03-16T11:43:02.598Z,101350.69
2023-03-16T11:48:36.857Z,101350.75
2023-03-16T12:08:00.973Z,101343.22
2023-03-16T12:13:37.845Z,101353.53
2023-03-16T12:18:49.331Z,101352.59
2023-03-16T12:24:03.450Z,101353.44
2023-03-16T12:29:21.296Z,101348.34
2023-03-16T12:34:34.872Z,101350.25
2023-03-16T12:40:08.175Z,101351.19
2023-03-16T12:45:26.247Z,101346.06
2023-03-16T12:50:33.660Z,101356.38
2023-03-16T12:55:47.143Z,101348.66
2023-03-16T13:01:01.376Z,101344.41
2023-03-16T13:06:10.030Z,101349.72
2023-03-16T13:11:18.253Z,101347.25
2023-03-16T13:16:31.077Z,101347.25
2023-03-16T13:21:41.509Z,101345.59
2023-03-16T13:26:52.490Z,101340.47
2023-03-16T13:32:02.153Z,101356.00
2023-03-16T13:37:18.341Z,101359.38
2023-03-16T13:42:28.741Z,101366.22
2023-03-16T13:47:35.306Z,101367.91
2023-03-16T13:52:44.494Z,101375.56
2023-03-16T13:57:52.699Z,101372.03
2023-03-16T14:03:04.636Z,101384.88
2023-03-16T14:08:19.923Z,101372.81
2023-03-16T14:13:38.606Z,101372.94
2023-03-16T14:18:48.547Z,101381.66
2023-03-16T14:23:58.678Z,101379.97
2023-03-16T14:29:13.586Z,101391.22
2023-03-16T14:34:32.642Z,101386.94
2023-03-16T14:39:40.790Z,101395.56
2023-03-16T14:44:50.094Z,101387.81
2023-03-16T14:49:59.364Z,101397.28
2023-03-16T14:55:13.386Z,101403.25
2023-03-16T15:00:23.655Z,101407.44
2023-03-16T15:05:37.256Z,101412.59
2023-03-16T15:10:44.528Z,101410.88
2023-03-16T15:15:52.956Z,101409.06
2023-03-16T15:53:51.271Z,101433.88
2023-03-16T15:59:00.731Z,101437.28
2023-03-16T16:04:14.838Z,101444.06
2023-03-16T16:09:23.447Z,101444.00
2023-03-16T16:14:30.380Z,101447.38
2023-03-16T16:19:37.017Z,101453.28
2023-03-16T16:24:45.867Z,101462.69
2023-03-16T16:29:52.527Z,101466.91
2023-03-16T16:35:04.572Z,101473.72
2023-03-16T16:40:19.395Z,101476.28
2023-03-16T16:45:30.296Z,101479.66
2023-03-16T16:50:37.900Z,101478.72
2023-03-16T16:55:46.203Z,101486.41
2023-03-16T17:00:58.303Z,101493.25
2023-03-16T17:06:05.294Z,101492.38
2023-03-16T17:11:23.495Z,101497.44
2023-03-16T17:16:34.206Z,101497.38
2023-03-16T17:21:42.462Z,101504.25
2023-03-16T17:26:54.650Z,101510.22
2023-03-16T17:32:06.917Z,101501.53
2023-03-16T17:37:21.796Z,101516.13
2023-03-16T17:42:31.101Z,101516.03
2023-03-16T17:47:41.160Z,101513.34
2023-03-16T17:52:50.858Z,101520.16
2023-03-16T17:58:03.614Z,101523.53
2023-03-16T18:03:19.426Z,101526.91
2023-03-16T18:08:30.125Z,101525.13
2023-03-16T18:13:42.904Z,101532.84
2023-03-16T18:18:54.006Z,101533.69
2023-03-16T18:24:04.096Z,101547.34
2023-03-16T18:29:15.796Z,101549.91
2023-03-16T18:34:30.550Z,101554.09
2023-03-16T18:39:42.544Z,101566.97
2023-03-16T18:44:57.527Z,101562.59
2023-03-16T18:50:11.715Z,101570.28
2023-03-16T18:55:24.794Z,101563.34
2023-03-16T19:06:04.674Z,101576.13
2023-03-16T19:11:15.335Z,101569.03
2023-03-16T19:16:29.219Z,101585.28
2023-03-16T19:21:41.317Z,101583.41
2023-03-16T19:26:51.671Z,101591.88
2023-03-16T19:32:04.267Z,101600.38
2023-03-16T19:37:17.531Z,101600.03
2023-03-16T19:42:37.644Z,101602.28
2023-03-16T19:47:48.749Z,101595.16
2023-03-16T19:53:02.571Z,101603.41
2023-03-16T19:58:28.089Z,101605.00
2023-03-16T20:03:45.222Z,101608.94
2023-03-16T20:08:56.933Z,101598.41
2023-03-16T20:14:07.092Z,101601.59
2023-03-16T20:19:21.627Z,101604.44
2023-03-16T20:24:38.983Z,101612.00
2023-03-16T20:29:50.989Z,101609.91
2023-03-16T20:35:06.662Z,101607.13
2023-03-16T20:40:16.873Z,101607.75
2023-03-16T20:45:32.032Z,101606.72
2023-03-16T20:50:42.950Z,101613.25
2023-03-16T20:55:55.214Z,101608.53
2023-03-16T21:01:09.075Z,101625.44
2023-03-16T21:06:26.163Z,101629.72
2023-03-16T21:11:38.150Z,101631.28
2023-03-16T21:16:45.447Z,101632.41
2023-03-16T21:22:01.859Z,101637.53
2023-03-16T21:27:09.860Z,101641.22
2023-03-16T21:32:23.794Z,101636.50
2023-03-16T21:37:32.485Z,101637.88
2023-03-16T21:42:39.717Z,101640.22
2023-03-16T21:47:47.914Z,101634.09
2023-03-16T21:52:56.156Z,101637.34
2023-03-16T21:58:03.434Z,101642.47
2023-03-16T22:03:37.850Z,101651.41
2023-03-16T22:08:55.977Z,101646.75
2023-03-16T22:14:02.792Z,101651.66
2023-03-16T22:19:13.753Z,101651.78
2023-03-16T22:24:24.287Z,101652.81
2023-03-16T22:29:36.849Z,101649.69
2023-03-16T22:34:48.035Z,101659.19
2023-03-16T22:39:57.760Z,101655.94
2023-03-16T22:45:05.941Z,101652.06
2023-03-16T22:50:17.062Z,101656.78
2023-03-16T22:55:29.383Z,101655.44
2023-03-16T23:00:38.455Z,101657.38
2023-03-16T23:05:45.349Z,101658.41
2023-03-16T23:10:54.774Z,101654.91
2023-03-16T23:16:01.089Z,101655.38
2023-03-16T23:21:07.768Z,101665.16
2023-03-16T23:26:21.084Z,101670.94
2023-03-16T23:31:28.337Z,101667.50
2023-03-16T23:36:34.549Z,101672.53
2023-03-16T23:41:46.656Z,101678.66
2023-03-16T23:46:53.296Z,101685.06
2023-03-16T23:52:02.504Z,101694.63
2023-03-16T23:57:11.502Z,101702.06
